sensor_id;sensor_type;location;lat;lon;timestamp;pressure;altitude;pressure_sealevel;temperature;humidity
16690;BME280;8458;52.220;9.884;2023-04-07T00:01:30;100856.41;;;5.93;62.69
16690;BME280;8458;52.220;9.884;2023-04-07T00:03:56;100848.81;;;5.88;62.95
16690;BME280;8458;52.220;9.884;2023-04-07T00:06:24;100856.94;;;5.83;62.68
16690;BME280;8458;52.220;9.884;2023-04-07T00:08:51;100856.03;;;5.89;62.39
16690;BME280;8458;52.220;9.884;2023-04-07T00:11:18;100849.16;;;5.99;62.15
16690;BME280;8458;52.220;9.884;2023-04-07T00:13:44;100847.66;;;6.03;61.65
16690;BME280;8458;52.220;9.884;2023-04-07T00:16:11;100844.03;;;6.02;61.93
16690;BME280;8458;52.220;9.884;2023-04-07T00:18:37;100842.88;;;5.91;62.09
16690;BME280;8458;52.220;9.884;2023-04-07T00:21:04;100844.66;;;5.86;62.08
16690;BME280;8458;52.220;9.884;2023-04-07T00:23:31;100843.31;;;5.88;62.30
16690;BME280;8458;52.220;9.884;2023-04-07T00:25:58;100837.53;;;5.78;61.97
16690;BME280;8458;52.220;9.884;2023-04-07T00:28:25;100834.78;;;5.78;62.40
16690;BME280;8458;52.220;9.884;2023-04-07T00:30:51;100841.03;;;5.67;62.67
16690;BME280;8458;52.220;9.884;2023-04-07T00:33:18;100833.00;;;5.65;62.82
16690;BME280;8458;52.220;9.884;2023-04-07T00:35:44;100842.88;;;5.73;62.41
16690;BME280;8458;52.220;9.884;2023-04-07T00:38:11;100838.91;;;5.69;62.88
16690;BME280;8458;52.220;9.884;2023-04-07T00:40:38;100843.78;;;5.67;62.68
16690;BME280;8458;52.220;9.884;2023-04-07T00:43:05;100839.41;;;5.59;62.95
16690;BME280;8458;52.220;9.884;2023-04-07T00:45:31;100844.84;;;5.47;63.27
16690;BME280;8458;52.220;9.884;2023-04-07T00:47:58;100839.94;;;5.49;63.00
16690;BME280;8458;52.220;9.884;2023-04-07T00:50:25;100850.38;;;5.66;62.18
16690;BME280;8458;52.220;9.884;2023-04-07T00:52:52;100850.03;;;5.55;62.57
16690;BME280;8458;52.220;9.884;2023-04-07T00:55:19;100838.25;;;5.48;62.90
16690;BME280;8458;52.220;9.884;2023-04-07T00:57:46;100840.84;;;5.43;62.90
16690;BME280;8458;52.220;9.884;2023-04-07T01:00:13;100832.84;;;5.42;63.13
16690;BME280;8458;52.220;9.884;2023-04-07T01:02:42;100833.66;;;5.42;63.38
16690;BME280;8458;52.220;9.884;2023-04-07T01:05:14;100835.34;;;5.43;62.97
16690;BME280;8458;52.220;9.884;2023-04-07T01:07:50;100833.44;;;5.44;63.03
16690;BME280;8458;52.220;9.884;2023-04-07T01:10:27;100831.38;;;5.39;62.79
16690;BME280;8458;52.220;9.884;2023-04-07T01:13:05;100826.09;;;5.37;63.09
16690;BME280;8458;52.220;9.884;2023-04-07T01:15:34;100828.00;;;5.37;62.65
16690;BME280;8458;52.220;9.884;2023-04-07T01:18:09;100831.44;;;5.32;63.24
16690;BME280;8458;52.220;9.884;2023-04-07T01:20:38;100831.53;;;5.26;63.09
16690;BME280;8458;52.220;9.884;2023-04-07T01:23:06;100835.78;;;5.21;63.48
16690;BME280;8458;52.220;9.884;2023-04-07T01:25:59;100829.06;;;5.17;63.54
16690;BME280;8458;52.220;9.884;2023-04-07T01:31:45;100832.38;;;5.01;63.52
16690;BME280;8458;52.220;9.884;2023-04-07T01:34:15;100831.91;;;5.04;63.61
16690;BME280;8458;52.220;9.884;2023-04-07T01:36:42;100828.13;;;5.05;63.40
16690;BME280;8458;52.220;9.884;2023-04-07T01:39:11;100822.16;;;5.08;63.20
16690;BME280;8458;52.220;9.884;2023-04-07T01:41:38;100826.25;;;4.99;63.69
16690;BME280;8458;52.220;9.884;2023-04-07T01:44:06;100830.75;;;4.93;63.60
16690;BME280;8458;52.220;9.884;2023-04-07T01:46:34;100833.88;;;4.97;63.61
16690;BME280;8458;52.220;9.884;2023-04-07T01:49:02;100833.88;;;4.97;63.63
16690;BME280;8458;52.220;9.884;2023-04-07T01:51:29;100841.28;;;4.96;63.56
16690;BME280;8458;52.220;9.884;2023-04-07T01:53:58;100831.03;;;4.85;63.73
16690;BME280;8458;52.220;9.884;2023-04-07T01:56:26;100827.09;;;4.74;63.79
16690;BME280;8458;52.220;9.884;2023-04-07T01:58:53;100832.59;;;4.74;63.92
16690;BME280;8458;52.220;9.884;2023-04-07T02:01:20;100833.19;;;4.76;64.03
16690;BME280;8458;52.220;9.884;2023-04-07T02:03:51;100830.72;;;4.68;64.19
16690;BME280;8458;52.220;9.884;2023-04-07T02:06:22;100830.88;;;4.73;64.51
16690;BME280;8458;52.220;9.884;2023-04-07T02:08:53;100825.41;;;4.73;64.57
16690;BME280;8458;52.220;9.884;2023-04-07T02:11:22;100830.88;;;4.73;64.28
16690;BME280;8458;52.220;9.884;2023-04-07T02:13:52;100827.97;;;4.68;64.43
16690;BME280;8458;52.220;9.884;2023-04-07T02:16:19;100833.84;;;4.72;64.21
16690;BME280;8458;52.220;9.884;2023-04-07T02:18:47;100833.47;;;4.68;64.37
16690;BME280;8458;52.220;9.884;2023-04-07T02:21:14;100833.91;;;4.65;64.23
16690;BME280;8458;52.220;9.884;2023-04-07T02:23:45;100829.91;;;4.61;64.16
16690;BME280;8458;52.220;9.884;2023-04-07T02:26:12;100836.69;;;4.58;64.38
16690;BME280;8458;52.220;9.884;2023-04-07T02:28:38;100818.34;;;4.52;64.40
16690;BME280;8458;52.220;9.884;2023-04-07T02:31:05;100823.19;;;4.57;64.48
16690;BME280;8458;52.220;9.884;2023-04-07T02:33:31;100822.13;;;4.58;64.22
16690;BME280;8458;52.220;9.884;2023-04-07T02:35:58;100834.81;;;4.59;63.97
16690;BME280;8458;52.220;9.884;2023-04-07T02:38:24;100838.59;;;4.58;63.89
16690;BME280;8458;52.220;9.884;2023-04-07T02:40:52;100828.44;;;4.58;64.15
16690;BME280;8458;52.220;9.884;2023-04-07T02:43:20;100832.31;;;4.51;64.42
16690;BME280;8458;52.220;9.884;2023-04-07T02:45:46;100830.84;;;4.48;64.64
16690;BME280;8458;52.220;9.884;2023-04-07T02:48:13;100834.00;;;4.52;64.69
16690;BME280;8458;52.220;9.884;2023-04-07T02:50:39;100830.19;;;4.53;64.97
16690;BME280;8458;52.220;9.884;2023-04-07T02:53:06;100830.00;;;4.47;64.62
16690;BME280;8458;52.220;9.884;2023-04-07T02:55:33;100833.81;;;4.46;65.01
16690;BME280;8458;52.220;9.884;2023-04-07T02:58:01;100834.25;;;4.43;64.68
16690;BME280;8458;52.220;9.884;2023-04-07T03:00:27;100836.56;;;4.46;64.93
16690;BME280;8458;52.220;9.884;2023-04-07T03:02:54;100827.69;;;4.44;64.90
16690;BME280;8458;52.220;9.884;2023-04-07T03:05:20;100829.81;;;4.42;64.83
16690;BME280;8458;52.220;9.884;2023-04-07T03:07:47;100832.78;;;4.41;65.05
16690;BME280;8458;52.220;9.884;2023-04-07T03:10:13;100834.72;;;4.40;65.41
16690;BME280;8458;52.220;9.884;2023-04-07T03:12:40;100835.16;;;4.37;65.43
16690;BME280;8458;52.220;9.884;2023-04-07T03:15:08;100834.03;;;4.45;65.35
16690;BME280;8458;52.220;9.884;2023-04-07T03:17:35;100839.13;;;4.41;65.32
16690;BME280;8458;52.220;9.884;2023-04-07T03:20:02;100831.53;;;4.43;65.40
16690;BME280;8458;52.220;9.884;2023-04-07T03:22:29;100831.97;;;4.34;65.35
16690;BME280;8458;52.220;9.884;2023-04-07T03:24:55;100834.06;;;4.38;65.07
16690;BME280;8458;52.220;9.884;2023-04-07T03:27:21;100846.34;;;4.36;65.24
16690;BME280;8458;52.220;9.884;2023-04-07T03:29:48;100841.97;;;4.28;65.57
16690;BME280;8458;52.220;9.884;2023-04-07T03:32:16;100830.78;;;4.23;66.20
16690;BME280;8458;52.220;9.884;2023-04-07T03:34:43;100833.72;;;4.28;66.20
16690;BME280;8458;52.220;9.884;2023-04-07T03:37:09;100828.66;;;4.25;66.09
16690;BME280;8458;52.220;9.884;2023-04-07T03:39:36;100828.88;;;4.23;65.92
16690;BME280;8458;52.220;9.884;2023-04-07T03:42:03;100832.47;;;4.24;65.65
16690;BME280;8458;52.220;9.884;2023-04-07T03:44:29;100824.66;;;4.21;66.04
16690;BME280;8458;52.220;9.884;2023-04-07T03:46:56;100835.91;;;4.12;65.72
16690;BME280;8458;52.220;9.884;2023-04-07T03:49:24;100836.13;;;4.11;66.11
16690;BME280;8458;52.220;9.884;2023-04-07T03:51:51;100836.34;;;4.09;65.98
16690;BME280;8458;52.220;9.884;2023-04-07T03:54:17;100835.91;;;4.12;65.68
16690;BME280;8458;52.220;9.884;2023-04-07T03:56:44;100842.63;;;4.17;65.50
16690;BME280;8458;52.220;9.884;2023-04-07T03:59:11;100837.13;;;4.17;65.03
16690;BME280;8458;52.220;9.884;2023-04-07T04:01:37;100842.22;;;4.13;65.43
16690;BME280;8458;52.220;9.884;2023-04-07T04:04:04;100843.50;;;4.10;65.46
16690;BME280;8458;52.220;9.884;2023-04-07T04:06:32;100846.50;;;4.02;65.93
16690;BME280;8458;52.220;9.884;2023-04-07T04:08:58;100848.16;;;4.10;65.73
16690;BME280;8458;52.220;9.884;2023-04-07T04:11:25;100858.53;;;4.01;65.77
16690;BME280;8458;52.220;9.884;2023-04-07T04:13:51;100858.34;;;3.96;65.92
16690;BME280;8458;52.220;9.884;2023-04-07T04:16:18;100860.50;;;3.87;66.25
16690;BME280;8458;52.220;9.884;2023-04-07T04:18:44;100854.16;;;3.87;66.44
16690;BME280;8458;52.220;9.884;2023-04-07T04:21:11;100850.78;;;3.85;66.64
16690;BME280;8458;52.220;9.884;2023-04-07T04:23:39;100847.66;;;3.74;67.28
16690;BME280;8458;52.220;9.884;2023-04-07T04:26:05;100854.81;;;3.75;67.31
16690;BME280;8458;52.220;9.884;2023-04-07T04:28:32;100858.00;;;3.72;67.50
16690;BME280;8458;52.220;9.884;2023-04-07T04:30:58;100856.53;;;3.76;67.47
16690;BME280;8458;52.220;9.884;2023-04-07T04:33:25;100855.03;;;3.74;67.57
16690;BME280;8458;52.220;9.884;2023-04-07T04:35:51;100856.31;;;3.71;67.43
16690;BME280;8458;52.220;9.884;2023-04-07T04:38:18;100857.56;;;3.75;67.58
16690;BME280;8458;52.220;9.884;2023-04-07T04:40:46;100861.19;;;3.69;67.74
16690;BME280;8458;52.220;9.884;2023-04-07T04:43:12;100862.88;;;3.64;68.02
16690;BME280;8458;52.220;9.884;2023-04-07T04:45:39;100863.09;;;3.55;68.14
16690;BME280;8458;52.220;9.884;2023-04-07T04:48:05;100863.72;;;3.64;67.99
16690;BME280;8458;52.220;9.884;2023-04-07T04:50:33;100873.19;;;3.68;67.82
16690;BME280;8458;52.220;9.884;2023-04-07T04:53:00;100876.56;;;3.77;67.50
16690;BME280;8458;52.220;9.884;2023-04-07T04:55:26;100875.50;;;3.71;67.30
16690;BME280;8458;52.220;9.884;2023-04-07T04:57:54;100867.31;;;3.65;67.72
16690;BME280;8458;52.220;9.884;2023-04-07T05:00:21;100875.28;;;3.73;67.78
16690;BME280;8458;52.220;9.884;2023-04-07T05:02:48;100875.94;;;3.75;67.15
16690;BME280;8458;52.220;9.884;2023-04-07T05:05:14;100877.81;;;3.74;66.91
16690;BME280;8458;52.220;9.884;2023-04-07T05:07:41;100875.09;;;3.68;67.35
16690;BME280;8458;52.220;9.884;2023-04-07T05:10:08;100877.81;;;3.74;67.32
16690;BME280;8458;52.220;9.884;2023-04-07T05:12:35;100877.63;;;3.69;67.33
16690;BME280;8458;52.220;9.884;2023-04-07T05:15:03;100874.03;;;3.75;67.29
16690;BME280;8458;52.220;9.884;2023-04-07T05:17:29;100877.00;;;3.67;67.50
16690;BME280;8458;52.220;9.884;2023-04-07T05:19:56;100878.69;;;3.68;67.60
16690;BME280;8458;52.220;9.884;2023-04-07T05:22:22;100886.75;;;3.56;68.01
16690;BME280;8458;52.220;9.884;2023-04-07T05:24:49;100878.28;;;3.65;68.24
16690;BME280;8458;52.220;9.884;2023-04-07T05:27:15;100884.81;;;3.70;68.41
16690;BME280;8458;52.220;9.884;2023-04-07T05:29:42;100884.56;;;3.79;68.18
16690;BME280;8458;52.220;9.884;2023-04-07T05:32:10;100888.38;;;3.84;67.91
16690;BME280;8458;52.220;9.884;2023-04-07T05:34:36;100875.88;;;3.88;67.92
16690;BME280;8458;52.220;9.884;2023-04-07T05:37:03;100886.03;;;3.88;67.93
16690;BME280;8458;52.220;9.884;2023-04-07T05:39:29;100883.06;;;3.89;68.04
16690;BME280;8458;52.220;9.884;2023-04-07T05:41:56;100885.84;;;3.83;68.57
16690;BME280;8458;52.220;9.884;2023-04-07T05:44:22;100877.38;;;3.77;68.90
16690;BME280;8458;52.220;9.884;2023-04-07T05:46:49;100887.28;;;3.85;68.90
16690;BME280;8458;52.220;9.884;2023-04-07T05:49:17;100885.41;;;3.86;68.92
16690;BME280;8458;52.220;9.884;2023-04-07T05:51:43;100889.63;;;3.82;69.70
16690;BME280;8458;52.220;9.884;2023-04-07T05:54:10;100888.59;;;3.83;70.62
16690;BME280;8458;52.220;9.884;2023-04-07T05:56:36;100897.63;;;3.90;70.89
16690;BME280;8458;52.220;9.884;2023-04-07T05:59:03;100891.06;;;3.98;71.43
16690;BME280;8458;52.220;9.884;2023-04-07T06:01:29;100896.09;;;4.01;71.89
16690;BME280;8458;52.220;9.884;2023-04-07T06:03:56;100903.88;;;4.10;71.72
16690;BME280;8458;52.220;9.884;2023-04-07T06:06:25;100897.09;;;4.20;70.53
16690;BME280;8458;52.220;9.884;2023-04-07T06:08:51;100897.09;;;4.20;70.24
16690;BME280;8458;52.220;9.884;2023-04-07T06:11:18;100905.97;;;4.22;70.04
16690;BME280;8458;52.220;9.884;2023-04-07T06:13:45;100901.34;;;4.16;70.72
16690;BME280;8458;52.220;9.884;2023-04-07T06:16:11;100904.06;;;4.22;70.65
16690;BME280;8458;52.220;9.884;2023-04-07T06:18:39;100915.00;;;4.29;70.65
16690;BME280;8458;52.220;9.884;2023-04-07T06:21:06;100911.38;;;4.35;70.22
16690;BME280;8458;52.220;9.884;2023-04-07T06:23:34;100906.31;;;4.32;70.63
16690;BME280;8458;52.220;9.884;2023-04-07T06:26:01;100908.84;;;4.40;70.67
16690;BME280;8458;52.220;9.884;2023-04-07T06:28:27;100912.19;;;4.42;70.55
16690;BME280;8458;52.220;9.884;2023-04-07T06:30:54;100912.63;;;4.39;70.19
16690;BME280;8458;52.220;9.884;2023-04-07T06:33:20;100906.72;;;4.42;70.53
16690;BME280;8458;52.220;9.884;2023-04-07T06:35:49;100909.25;;;4.44;70.29
16690;BME280;8458;52.220;9.884;2023-04-07T06:38:16;100923.59;;;4.46;71.12
16690;BME280;8458;52.220;9.884;2023-04-07T06:40:44;100918.69;;;4.55;71.49
16690;BME280;8458;52.220;9.884;2023-04-07T06:43:11;100929.63;;;4.61;71.40
16690;BME280;8458;52.220;9.884;2023-04-07T06:45:37;100922.16;;;4.75;70.88
16690;BME280;8458;52.220;9.884;2023-04-07T06:48:04;100934.47;;;4.73;70.33
16690;BME280;8458;52.220;9.884;2023-04-07T06:50:31;100929.63;;;4.68;70.57
16690;BME280;8458;52.220;9.884;2023-04-07T06:52:58;100926.22;;;4.66;71.29
16690;BME280;8458;52.220;9.884;2023-04-07T06:55:24;100931.94;;;4.64;71.89
16690;BME280;8458;52.220;9.884;2023-04-07T06:57:53;100933.59;;;4.72;71.15
16690;BME280;8458;52.220;9.884;2023-04-07T07:00:19;100943.69;;;4.78;70.89
16690;BME280;8458;52.220;9.884;2023-04-07T07:02:47;100929.28;;;4.90;69.72
16690;BME280;8458;52.220;9.884;2023-04-07T07:05:13;100938.31;;;4.97;69.38
16690;BME280;8458;52.220;9.884;2023-04-07T07:07:40;100940.16;;;5.03;69.44
16690;BME280;8458;52.220;9.884;2023-04-07T07:10:08;100941.81;;;5.11;69.84
16690;BME280;8458;52.220;9.884;2023-04-07T07:12:34;100946.84;;;5.20;70.11
16690;BME280;8458;52.220;9.884;2023-04-07T07:15:03;100936.16;;;5.31;69.69
16690;BME280;8458;52.220;9.884;2023-04-07T07:17:29;100935.72;;;5.34;68.54
16690;BME280;8458;52.220;9.884;2023-04-07T07:19:56;100937.84;;;5.32;68.40
16690;BME280;8458;52.220;9.884;2023-04-07T07:22:22;100941.00;;;5.35;68.87
16690;BME280;8458;52.220;9.884;2023-04-07T07:24:49;100940.31;;;5.40;68.70
16690;BME280;8458;52.220;9.884;2023-04-07T07:27:15;100941.56;;;5.44;69.16
16690;BME280;8458;52.220;9.884;2023-04-07T07:29:42;100947.44;;;5.48;69.63
16690;BME280;8458;52.220;9.884;2023-04-07T07:32:09;100945.72;;;5.53;69.89
16690;BME280;8458;52.220;9.884;2023-04-07T07:34:36;100948.97;;;5.69;69.93
16690;BME280;8458;52.220;9.884;2023-04-07T07:37:02;100944.56;;;5.86;68.82
16690;BME280;8458;52.220;9.884;2023-04-07T07:39:29;100939.31;;;6.03;68.40
16690;BME280;8458;52.220;9.884;2023-04-07T07:41:55;100943.84;;;6.16;68.12
16690;BME280;8458;52.220;9.884;2023-04-07T07:44:22;100945.28;;;6.37;67.79
16690;BME280;8458;52.220;9.884;2023-04-07T07:46:48;100944.22;;;6.57;67.55
16690;BME280;8458;52.220;9.884;2023-04-07T07:49:16;100956.63;;;6.78;66.18
16690;BME280;8458;52.220;9.884;2023-04-07T07:51:43;100950.47;;;6.94;65.03
16690;BME280;8458;52.220;9.884;2023-04-07T07:54:10;100951.97;;;7.09;63.81
16690;BME280;8458;52.220;9.884;2023-04-07T07:56:36;100951.28;;;7.25;62.75
16690;BME280;8458;52.220;9.884;2023-04-07T07:59:03;100959.34;;;7.39;60.38
16690;BME280;8458;52.220;9.884;2023-04-07T08:01:30;100958.53;;;7.50;59.89
16690;BME280;8458;52.220;9.884;2023-04-07T08:03:57;100954.47;;;7.64;59.25
16690;BME280;8458;52.220;9.884;2023-04-07T08:06:24;100957.59;;;7.80;58.88
16690;BME280;8458;52.220;9.884;2023-04-07T08:08:53;100958.78;;;7.96;60.33
16690;BME280;8458;52.220;9.884;2023-04-07T08:11:20;100954.94;;;8.08;60.02
16690;BME280;8458;52.220;9.884;2023-04-07T08:13:46;100960.69;;;8.19;58.53
16690;BME280;8458;52.220;9.884;2023-04-07T08:16:13;100959.72;;;8.25;57.73
16690;BME280;8458;52.220;9.884;2023-04-07T08:18:39;100963.78;;;8.34;57.56
16690;BME280;8458;52.220;9.884;2023-04-07T08:21:06;100974.69;;;8.41;56.52
16690;BME280;8458;52.220;9.884;2023-04-07T08:23:34;100961.38;;;8.50;56.70
16690;BME280;8458;52.220;9.884;2023-04-07T08:26:00;100966.78;;;8.56;57.31
16690;BME280;8458;52.220;9.884;2023-04-07T08:28:27;100973.34;;;8.67;57.31
16690;BME280;8458;52.220;9.884;2023-04-07T08:30:53;100973.22;;;8.74;56.54
16690;BME280;8458;52.220;9.884;2023-04-07T08:33:19;100974.28;;;8.85;55.70
16690;BME280;8458;52.220;9.884;2023-04-07T08:35:46;100979.41;;;8.93;54.54
16690;BME280;8458;52.220;9.884;2023-04-07T08:38:12;100971.81;;;9.00;53.69
16690;BME280;8458;52.220;9.884;2023-04-07T08:40:40;100982.72;;;9.07;53.63
16690;BME280;8458;52.220;9.884;2023-04-07T08:43:08;100978.38;;;9.11;53.44
16690;BME280;8458;52.220;9.884;2023-04-07T08:45:37;100968.84;;;9.19;54.27
16690;BME280;8458;52.220;9.884;2023-04-07T08:48:08;100985.59;;;9.29;53.34
16690;BME280;8458;52.220;9.884;2023-04-07T08:50:37;100978.00;;;9.36;53.23
16690;BME280;8458;52.220;9.884;2023-04-07T08:53:07;100979.59;;;9.49;52.95
16690;BME280;8458;52.220;9.884;2023-04-07T08:55:35;100984.81;;;9.62;52.08
16690;BME280;8458;52.220;9.884;2023-04-07T08:58:03;100979.66;;;9.71;52.11
16690;BME280;8458;52.220;9.884;2023-04-07T09:00:30;100980.34;;;9.78;51.68
16690;BME280;8458;52.220;9.884;2023-04-07T09:02:57;100970.59;;;9.93;53.14
16690;BME280;8458;52.220;9.884;2023-04-07T09:05:26;100976.97;;;10.10;51.51
16690;BME280;8458;52.220;9.884;2023-04-07T09:07:52;100974.41;;;10.26;49.44
16690;BME280;8458;52.220;9.884;2023-04-07T09:10:19;100972.47;;;10.43;47.67
16690;BME280;8458;52.220;9.884;2023-04-07T09:12:45;100974.16;;;10.66;47.12
16690;BME280;8458;52.220;9.884;2023-04-07T09:15:13;100970.69;;;10.81;45.81
16690;BME280;8458;52.220;9.884;2023-04-07T09:17:40;100975.53;;;10.91;44.83
16690;BME280;8458;52.220;9.884;2023-04-07T09:20:07;100975.38;;;11.03;43.87
16690;BME280;8458;52.220;9.884;2023-04-07T09:22:35;100978.22;;;11.08;43.13
16690;BME280;8458;52.220;9.884;2023-04-07T09:25:13;100970.59;;;11.20;42.80
16690;BME280;8458;52.220;9.884;2023-04-07T09:27:41;100970.16;;;11.34;43.93
16690;BME280;8458;52.220;9.884;2023-04-07T09:30:21;100979.16;;;11.46;42.60
16690;BME280;8458;52.220;9.884;2023-04-07T09:32:47;100980.03;;;11.52;41.59
16690;BME280;8458;52.220;9.884;2023-04-07T09:35:14;100984.81;;;11.56;42.50
16690;BME280;8458;52.220;9.884;2023-04-07T09:37:40;100967.34;;;11.61;42.38
16690;BME280;8458;52.220;9.884;2023-04-07T09:40:08;100975.41;;;11.62;42.23
16690;BME280;8458;52.220;9.884;2023-04-07T09:42:34;100980.19;;;11.67;41.93
16690;BME280;8458;52.220;9.884;2023-04-07T09:45:04;100973.25;;;11.70;41.83
16690;BME280;8458;52.220;9.884;2023-04-07T09:47:32;100982.16;;;11.72;41.95
16690;BME280;8458;52.220;9.884;2023-04-07T09:49:59;100979.94;;;11.74;42.89
16690;BME280;8458;52.220;9.884;2023-04-07T09:52:49;100971.97;;;11.82;44.14
16690;BME280;8458;52.220;9.884;2023-04-07T09:55:18;100970.59;;;11.85;42.41
16690;BME280;8458;52.220;9.884;2023-04-07T09:57:46;100976.19;;;11.90;43.03
16690;BME280;8458;52.220;9.884;2023-04-07T10:00:14;100975.69;;;11.93;42.32
16690;BME280;8458;52.220;9.884;2023-04-07T10:02:42;100975.19;;;12.01;42.66
16690;BME280;8458;52.220;9.884;2023-04-07T10:05:09;100967.19;;;12.10;41.97
16690;BME280;8458;52.220;9.884;2023-04-07T10:07:36;100971.34;;;12.13;41.85
16690;BME280;8458;52.220;9.884;2023-04-07T10:10:03;100967.47;;;12.14;41.29
16690;BME280;8458;52.220;9.884;2023-04-07T10:12:34;100970.81;;;12.16;41.60
16690;BME280;8458;52.220;9.884;2023-04-07T10:15:03;100980.31;;;12.25;42.41
16690;BME280;8458;52.220;9.884;2023-04-07T10:17:30;100977.59;;;12.30;41.67
16690;BME280;8458;52.220;9.884;2023-04-07T10:20:00;100981.81;;;12.38;42.38
16690;BME280;8458;52.220;9.884;2023-04-07T10:22:27;100979.31;;;12.42;42.21
16690;BME280;8458;52.220;9.884;2023-04-07T10:24:58;100977.41;;;12.47;42.64
16690;BME280;8458;52.220;9.884;2023-04-07T10:27:29;100975.78;;;12.57;41.29
16690;BME280;8458;52.220;9.884;2023-04-07T10:29:57;100978.25;;;12.53;40.77
16690;BME280;8458;52.220;9.884;2023-04-07T10:32:25;100974.09;;;12.50;40.66
16690;BME280;8458;52.220;9.884;2023-04-07T10:34:55;100991.03;;;12.49;40.94
16690;BME280;8458;52.220;9.884;2023-04-07T10:37:24;100981.56;;;12.50;40.62
16690;BME280;8458;52.220;9.884;2023-04-07T10:40:28;100987.19;;;12.55;41.06
16690;BME280;8458;52.220;9.884;2023-04-07T10:42:54;100984.66;;;12.53;40.45
16690;BME280;8458;52.220;9.884;2023-04-07T10:45:52;100987.13;;;12.50;41.05
16690;BME280;8458;52.220;9.884;2023-04-07T10:48:20;100983.59;;;12.60;42.04
16690;BME280;8458;52.220;9.884;2023-04-07T10:51:12;100992.28;;;12.73;41.24
16690;BME280;8458;52.220;9.884;2023-04-07T10:57:09;100992.81;;;12.70;41.32
16690;BME280;8458;52.220;9.884;2023-04-07T10:59:37;100987.00;;;12.77;41.33
16690;BME280;8458;52.220;9.884;2023-04-07T11:02:29;100990.94;;;12.91;39.83
16690;BME280;8458;52.220;9.884;2023-04-07T11:04:56;100983.44;;;12.97;41.00
16690;BME280;8458;52.220;9.884;2023-04-07T11:07:43;100987.31;;;12.91;40.10
16690;BME280;8458;52.220;9.884;2023-04-07T11:10:11;100992.88;;;12.91;39.68
16690;BME280;8458;52.220;9.884;2023-04-07T11:12:41;100979.53;;;12.93;39.78
16690;BME280;8458;52.220;9.884;2023-04-07T11:15:18;100986.22;;;13.02;40.08
16690;BME280;8458;52.220;9.884;2023-04-07T11:17:46;100986.25;;;13.07;39.75
16690;BME280;8458;52.220;9.884;2023-04-07T11:20:12;100989.88;;;13.13;39.34
16690;BME280;8458;52.220;9.884;2023-04-07T11:22:39;100994.63;;;13.13;39.50
16690;BME280;8458;52.220;9.884;2023-04-07T11:25:19;100988.50;;;13.11;40.54
16690;BME280;8458;52.220;9.884;2023-04-07T11:27:48;100983.22;;;13.19;39.49
16690;BME280;8458;52.220;9.884;2023-04-07T11:30:15;100994.34;;;13.24;38.85
16690;BME280;8458;52.220;9.884;2023-04-07T11:32:47;100990.47;;;13.25;38.60
16690;BME280;8458;52.220;9.884;2023-04-07T11:35:14;100989.09;;;13.28;38.56
16690;BME280;8458;52.220;9.884;2023-04-07T11:37:41;100987.94;;;13.29;39.47
16690;BME280;8458;52.220;9.884;2023-04-07T11:40:08;100991.31;;;13.31;39.77
16690;BME280;8458;52.220;9.884;2023-04-07T11:42:37;100992.47;;;13.40;40.75
16690;BME280;8458;52.220;9.884;2023-04-07T11:45:15;100996.94;;;13.52;39.67
16690;BME280;8458;52.220;9.884;2023-04-07T11:47:41;100982.72;;;13.53;39.51
16690;BME280;8458;52.220;9.884;2023-04-07T11:50:09;100986.91;;;13.61;40.17
16690;BME280;8458;52.220;9.884;2023-04-07T11:52:42;100988.31;;;13.63;39.09
16690;BME280;8458;52.220;9.884;2023-04-07T11:55:16;100984.69;;;13.68;39.73
16690;BME280;8458;52.220;9.884;2023-04-07T11:57:43;100989.69;;;13.81;41.60
16690;BME280;8458;52.220;9.884;2023-04-07T12:00:12;100982.44;;;13.91;39.28
16690;BME280;8458;52.220;9.884;2023-04-07T12:02:40;100984.13;;;13.92;40.10
16690;BME280;8458;52.220;9.884;2023-04-07T12:05:07;100988.88;;;13.91;39.67
16690;BME280;8458;52.220;9.884;2023-04-07T12:07:34;100986.91;;;13.92;40.88
16690;BME280;8458;52.220;9.884;2023-04-07T12:10:19;100980.78;;;13.90;40.63
16690;BME280;8458;52.220;9.884;2023-04-07T12:12:45;100986.38;;;13.79;41.06
16690;BME280;8458;52.220;9.884;2023-04-07T12:15:14;100990.81;;;13.86;41.04
16690;BME280;8458;52.220;9.884;2023-04-07T12:17:43;100984.69;;;13.99;39.40
16690;BME280;8458;52.220;9.884;2023-04-07T12:20:11;100986.91;;;13.97;39.93
16690;BME280;8458;52.220;9.884;2023-04-07T12:22:37;100991.38;;;13.93;39.32
16690;BME280;8458;52.220;9.884;2023-04-07T12:25:04;100996.09;;;13.92;39.67
16690;BME280;8458;52.220;9.884;2023-04-07T12:27:31;100982.16;;;14.03;39.64
16690;BME280;8458;52.220;9.884;2023-04-07T12:29:58;100988.84;;;14.12;39.63
16690;BME280;8458;52.220;9.884;2023-04-07T12:32:25;100980.75;;;14.15;38.35
16690;BME280;8458;52.220;9.884;2023-04-07T12:34:53;100978.53;;;14.18;38.78
16690;BME280;8458;52.220;9.884;2023-04-07T12:37:19;100989.09;;;14.15;38.86
16690;BME280;8458;52.220;9.884;2023-04-07T12:39:46;100989.69;;;14.18;38.15
16690;BME280;8458;52.220;9.884;2023-04-07T12:42:12;100985.22;;;14.16;38.85
16690;BME280;8458;52.220;9.884;2023-04-07T12:44:39;100982.69;;;14.25;40.26
16690;BME280;8458;52.220;9.884;2023-04-07T12:47:05;100982.97;;;14.24;39.98
16690;BME280;8458;52.220;9.884;2023-04-07T12:49:33;100991.31;;;14.29;40.43
16690;BME280;8458;52.220;9.884;2023-04-07T12:52:00;100984.59;;;14.40;41.10
16690;BME280;8458;52.220;9.884;2023-04-07T12:54:27;100989.03;;;14.46;39.11
16690;BME280;8458;52.220;9.884;2023-04-07T12:56:54;100993.47;;;14.52;39.51
16690;BME280;8458;52.220;9.884;2023-04-07T12:59:21;100983.16;;;14.58;38.32
16690;BME280;8458;52.220;9.884;2023-04-07T13:01:48;100986.78;;;14.69;39.40
16690;BME280;8458;52.220;9.884;2023-04-07T13:04:15;100981.16;;;14.74;38.36
16690;BME280;8458;52.220;9.884;2023-04-07T13:06:43;100984.53;;;14.71;36.74
16690;BME280;8458;52.220;9.884;2023-04-07T13:09:09;100982.88;;;14.65;37.53
16690;BME280;8458;52.220;9.884;2023-04-07T13:11:36;100989.50;;;14.84;36.80
16690;BME280;8458;52.220;9.884;2023-04-07T13:14:02;100981.88;;;15.00;37.73
16690;BME280;8458;52.220;9.884;2023-04-07T13:16:29;100974.47;;;15.25;37.39
16690;BME280;8458;52.220;9.884;2023-04-07T13:18:55;100971.78;;;15.49;36.49